Time;durP1;ratioP1;P1;durP2;ratioP2;P2;SDS_P1;SDS_P2;PMS_P1;PMS_P2;Temp;Humidity;BMP_temperature;BMP_pressure;BME280_temperature;BME280_humidity;BME280_pressure;Samples;Min_cycle;Max_cycle;Signal;HPM_P1;HPM_P2
2023/08/15 00:01:57;;;;;;;6.67;6.17;;;;;;;24.47;52.19;95101.84;5076547;28;20942;-78
2023/08/15 00:04:24;;;;;;;8.90;6.60;;;;;;;24.43;52.31;95096.09;5076256;28;20443;-78
2023/08/15 00:06:51;;;;;;;8.10;6.20;;;;;;;24.40;52.29;95097.34;5076561;28;20487;-79
2023/08/15 00:09:18;;;;;;;7.70;7.00;;;;;;;24.41;52.79;95098.16;5076606;28;20432;-78
2023/08/15 00:11:46;;;;;;;6.50;6.00;;;;;;;24.37;52.69;95094.25;5078238;28;20442;-78
2023/08/15 00:14:13;;;;;;;7.03;6.33;;;;;;;24.39;52.71;95097.53;5077867;28;20466;-78
2023/08/15 00:16:39;;;;;;;6.90;5.93;;;;;;;24.35;52.71;95088.28;5078067;28;20435;-77
2023/08/15 00:19:06;;;;;;;7.90;6.60;;;;;;;24.44;52.47;95087.00;5077991;28;20432;-78
2023/08/15 00:21:33;;;;;;;8.20;7.20;;;;;;;24.39;53.58;95084.13;5077523;28;20467;-78
2023/08/15 00:24:02;;;;;;;8.03;7.03;;;;;;;24.38;53.33;95083.31;5077480;28;20418;-79
2023/08/15 00:26:28;;;;;;;7.07;6.43;;;;;;;24.41;54.16;95076.69;5058577;28;20816;-77
2023/08/15 00:28:58;;;;;;;6.60;6.00;;;;;;;24.36;53.97;95073.81;5077507;28;20447;-78
2023/08/15 00:31:25;;;;;;;10.63;7.30;;;;;;;24.36;54.47;95068.47;5076577;28;20442;-78
2023/08/15 00:33:52;;;;;;;9.20;6.20;;;;;;;24.35;54.70;95066.81;5076568;28;20436;-78
2023/08/15 00:36:18;;;;;;;6.70;6.10;;;;;;;24.32;54.92;95062.69;5075996;28;20457;-78
2023/08/15 00:38:45;;;;;;;6.40;5.80;;;;;;;24.28;55.29;95063.31;5076243;28;20461;-78
2023/08/15 00:41:12;;;;;;;6.77;6.17;;;;;;;24.25;55.67;95061.00;5076041;28;20964;-77
2023/08/15 00:43:39;;;;;;;8.70;7.83;;;;;;;24.19;55.24;95053.81;5057538;28;20437;-78
2023/08/15 00:46:08;;;;;;;7.00;6.30;;;;;;;24.12;55.36;95064.56;5076281;28;20502;-78
2023/08/15 00:48:38;;;;;;;11.83;7.00;;;;;;;24.07;54.84;95059.00;5075706;28;20465;-80
2023/08/15 00:51:06;;;;;;;8.30;6.77;;;;;;;24.00;55.12;95053.66;5075668;28;20517;-78
2023/08/15 00:53:35;;;;;;;7.87;6.60;;;;;;;23.99;55.63;95051.16;5075874;28;20440;-78
2023/08/15 00:56:02;;;;;;;7.73;6.97;;;;;;;23.93;55.60;95049.31;5075731;28;20973;-77
2023/08/15 00:58:31;;;;;;;8.00;7.20;;;;;;;23.83;55.50;95036.34;5075746;28;20451;-77
2023/08/15 01:00:58;;;;;;;7.23;6.50;;;;;;;23.73;56.36;95042.16;5074666;28;20439;-75
2023/08/15 01:03:26;;;;;;;8.13;6.50;;;;;;;23.65;56.88;95028.13;5075362;28;20534;-77
2023/08/15 01:05:53;;;;;;;9.70;7.03;;;;;;;23.60;57.10;95023.38;5075643;28;20491;-77
2023/08/15 01:08:20;;;;;;;9.47;6.33;;;;;;;23.58;57.68;95024.63;5075440;28;20439;-77
2023/08/15 01:10:47;;;;;;;7.10;6.40;;;;;;;23.57;57.59;95028.34;5075260;28;20444;-78
2023/08/15 01:13:22;;;;;;;11.43;6.47;;;;;;;23.52;57.22;95023.56;5075691;28;20458;-78
2023/08/15 01:15:52;;;;;;;7.57;6.83;;;;;;;23.43;57.23;95027.50;5075807;28;20442;-78
2023/08/15 01:18:25;;;;;;;8.10;7.07;;;;;;;23.46;56.25;95024.41;5075909;28;20925;-77
2023/08/15 01:20:55;;;;;;;8.43;6.67;;;;;;;23.47;56.25;95026.88;5076042;28;20467;-78
2023/08/15 01:23:39;;;;;;;15.88;7.82;;;;;;;23.59;56.27;95026.28;5057227;28;20438;-79
2023/08/15 01:26:06;;;;;;;7.13;6.53;;;;;;;23.60;56.81;95027.91;5075859;28;20235;-77
2023/08/15 01:28:33;;;;;;;8.03;6.83;;;;;;;23.59;57.12;95023.59;5079130;28;20435;-78
2023/08/15 01:31:07;;;;;;;7.43;6.70;;;;;;;23.51;57.28;95026.47;5077126;28;20449;-78
2023/08/15 01:33:38;;;;;;;7.30;6.60;;;;;;;23.47;57.28;95021.50;5077044;28;20442;-78
2023/08/15 01:36:13;;;;;;;8.30;6.53;;;;;;;23.46;57.59;95027.91;5075902;28;20450;-78
2023/08/15 01:38:45;;;;;;;9.40;6.30;;;;;;;23.49;58.01;95023.97;5075760;28;20474;-78
2023/08/15 01:41:18;;;;;;;7.13;6.50;;;;;;;23.47;57.83;95026.88;5076221;28;20513;-78
2023/08/15 01:43:46;;;;;;;7.23;6.63;;;;;;;23.51;58.38;95026.47;5075630;28;20439;-77
2023/08/15 01:46:13;;;;;;;7.80;7.10;;;;;;;23.51;58.02;95023.78;5075316;28;20488;-78
2023/08/15 01:48:41;;;;;;;6.90;6.30;;;;;;;23.51;57.52;95021.09;5075213;28;20451;-77
2023/08/15 01:51:08;;;;;;;8.37;7.37;;;;;;;23.48;57.31;95017.81;5075831;28;20449;-78
2023/08/15 01:53:36;;;;;;;7.23;6.47;;;;;;;23.47;56.98;95020.69;5076059;28;20813;-76
2023/08/15 01:56:04;;;;;;;7.43;6.63;;;;;;;23.42;56.93;95018.63;5057794;28;20442;-79
2023/08/15 01:58:32;;;;;;;7.67;6.97;;;;;;;23.42;57.33;95010.59;5076106;28;20448;-78
2023/08/15 02:00:59;;;;;;;8.00;7.20;;;;;;;23.42;57.35;95013.28;5078238;28;20941;-77
2023/08/15 02:03:26;;;;;;;8.80;8.00;;;;;;;23.40;57.25;94999.25;5081984;28;20444;-78
2023/08/15 02:05:53;;;;;;;12.70;7.33;;;;;;;23.40;57.39;95009.13;5081099;28;20980;-78
2023/08/15 02:08:20;;;;;;;8.47;6.90;;;;;;;23.37;57.30;95010.38;5078807;28;20445;-78
2023/08/15 02:10:47;;;;;;;7.63;6.97;;;;;;;23.36;57.04;95003.38;5075848;28;20444;-78
2023/08/15 02:13:15;;;;;;;7.57;6.87;;;;;;;23.40;57.05;95001.91;5060555;28;20447;-78
2023/08/15 02:15:42;;;;;;;12.53;6.90;;;;;;;23.40;57.36;95001.91;5083259;28;20463;-78
2023/08/15 02:18:10;;;;;;;15.80;7.30;;;;;;;23.39;56.89;94997.59;5083309;28;20445;-78
2023/08/15 02:20:37;;;;;;;6.13;5.53;;;;;;;23.37;57.30;95004.19;5074771;28;20485;-78
2023/08/15 02:23:04;;;;;;;8.83;7.27;;;;;;;23.34;57.02;94993.88;5081298;28;20444;-76
2023/08/15 02:25:31;;;;;;;7.23;6.23;;;;;;;23.31;57.08;95005.00;5082917;28;20458;-78
2023/08/15 02:27:58;;;;;;;8.17;6.27;;;;;;;23.28;57.22;95000.06;5083579;28;20896;-77
2023/08/15 02:30:26;;;;;;;7.50;6.80;;;;;;;23.27;57.01;95009.97;5046250;28;20453;-78
2023/08/15 02:32:53;;;;;;;7.63;6.87;;;;;;;23.27;57.25;94993.91;5079494;28;20448;-78
2023/08/15 02:35:21;;;;;;;7.30;6.60;;;;;;;23.25;57.47;95009.34;5076265;28;20431;-78
2023/08/15 02:37:48;;;;;;;9.10;7.13;;;;;;;23.25;57.38;95006.66;5074738;28;20448;-78
2023/08/15 02:40:15;;;;;;;7.33;6.63;;;;;;;23.23;57.24;95003.38;5074924;28;20442;-78
2023/08/15 02:42:43;;;;;;;7.27;6.57;;;;;;;23.22;57.67;95012.44;5073963;28;20439;-77
2023/08/15 02:45:10;;;;;;;8.23;6.23;;;;;;;23.17;57.42;94997.00;5074600;28;20457;-78
2023/08/15 02:47:38;;;;;;;7.20;6.50;;;;;;;23.19;57.10;95010.16;5075049;28;20998;-78
2023/08/15 02:50:06;;;;;;;7.50;6.80;;;;;;;23.16;57.53;95005.22;5075203;28;20446;-78
2023/08/15 02:52:33;;;;;;;8.07;6.50;;;;;;;23.19;57.67;95002.13;5075398;28;20447;-77
2023/08/15 02:55:00;;;;;;;8.47;6.60;;;;;;;23.20;57.40;94993.06;5073888;28;20900;-78
2023/08/15 02:57:27;;;;;;;9.70;7.23;;;;;;;23.19;57.62;94988.75;5073748;28;20452;-78
2023/08/15 02:59:53;;;;;;;7.77;6.30;;;;;;;23.18;57.45;94990.59;5073543;28;20983;-78
2023/08/15 03:02:20;;;;;;;9.67;7.60;;;;;;;23.17;57.38;94991.63;5073522;28;20444;-77
2023/08/15 03:04:48;;;;;;;7.30;6.60;;;;;;;23.16;57.99;94989.16;5073613;28;20937;-78
2023/08/15 03:07:15;;;;;;;6.47;5.90;;;;;;;23.10;58.04;94992.63;5073224;28;20490;-79
2023/08/15 03:09:42;;;;;;;10.00;6.70;;;;;;;23.11;58.60;94996.97;5073706;28;20451;-78
2023/08/15 03:12:09;;;;;;;8.60;6.87;;;;;;;23.12;59.08;95003.97;5073778;28;20443;-78
2023/08/15 03:14:36;;;;;;;7.60;7.00;;;;;;;23.10;58.57;95001.50;5071855;28;20465;-77
2023/08/15 03:17:03;;;;;;;8.97;7.17;;;;;;;23.11;58.46;94999.63;5074350;28;20444;-77
2023/08/15 03:19:31;;;;;;;8.20;6.33;;;;;;;23.10;58.59;94995.31;5073868;28;20444;-78
2023/08/15 03:21:59;;;;;;;7.70;6.97;;;;;;;23.07;58.43;94996.56;5073446;28;20486;-77
2023/08/15 03:24:28;;;;;;;7.17;6.47;;;;;;;23.03;58.09;95000.66;5072652;28;20959;-78
2023/08/15 03:26:55;;;;;;;13.40;6.77;;;;;;;23.03;58.76;95007.88;5073307;28;20580;-78
2023/08/15 03:29:22;;;;;;;7.33;6.13;;;;;;;23.03;58.40;95019.41;5073839;28;20805;-78
2023/08/15 03:31:48;;;;;;;8.07;6.60;;;;;;;23.05;58.70;95021.88;5055153;28;20435;-75
2023/08/15 03:34:15;;;;;;;9.33;7.57;;;;;;;23.05;59.12;95016.53;5073818;28;20800;-76
2023/08/15 03:36:42;;;;;;;7.43;6.73;;;;;;;23.06;59.05;95007.47;5073825;28;20452;-79
2023/08/15 03:39:10;;;;;;;7.37;6.73;;;;;;;23.06;59.09;95015.50;5073558;28;20442;-76
2023/08/15 03:41:38;;;;;;;8.63;6.40;;;;;;;23.08;59.25;95016.13;5055357;28;20453;-76
2023/08/15 03:44:06;;;;;;;7.30;6.50;;;;;;;23.07;59.42;95011.78;5074052;28;20444;-76
2023/08/15 03:46:34;;;;;;;9.20;6.80;;;;;;;23.05;58.90;95019.19;5074083;28;20481;-77
2023/08/15 03:49:01;;;;;;;8.63;6.80;;;;;;;23.05;58.57;95027.22;5074192;28;20453;-76
2023/08/15 03:51:28;;;;;;;7.07;6.40;;;;;;;23.05;59.23;95019.19;5038891;28;20446;-76
2023/08/15 03:53:55;;;;;;;7.33;6.63;;;;;;;23.03;59.23;95023.94;5074361;28;20454;-77
2023/08/15 03:56:23;;;;;;;7.77;6.90;;;;;;;23.00;59.77;95019.81;5073826;28;20438;-76
2023/08/15 03:58:50;;;;;;;7.60;6.80;;;;;;;22.98;60.08;95021.06;5073533;28;20460;-76
2023/08/15 04:01:17;;;;;;;7.53;6.90;;;;;;;22.98;59.78;95015.69;5074002;28;20441;-76
2023/08/15 04:03:44;;;;;;;11.60;7.43;;;;;;;22.95;59.39;95018.78;5073860;28;20442;-77
2023/08/15 04:06:10;;;;;;;9.00;7.00;;;;;;;22.91;59.71;95022.91;5073899;28;20475;-74
2023/08/15 04:08:37;;;;;;;9.90;7.77;;;;;;;22.89;59.75;95017.75;5073593;28;20447;-76
2023/08/15 04:11:04;;;;;;;8.00;7.17;;;;;;;22.88;60.02;95015.28;5073727;28;20817;-76
2023/08/15 04:13:32;;;;;;;7.67;6.70;;;;;;;22.91;60.39;95014.88;5073593;28;20457;-77
2023/08/15 04:15:59;;;;;;;11.20;7.63;;;;;;;22.93;60.25;95026.19;5073734;28;20460;-75
2023/08/15 04:18:26;;;;;;;8.17;6.50;;;;;;;22.87;60.26;95014.44;5073648;28;20478;-76
2023/08/15 04:20:53;;;;;;;9.80;6.97;;;;;;;22.94;60.21;95026.00;5073338;28;20474;-76
2023/08/15 04:23:20;;;;;;;9.90;7.33;;;;;;;22.97;60.13;95022.06;5072738;28;20442;-77
2023/08/15 04:25:46;;;;;;;6.97;6.30;;;;;;;22.93;60.23;95012.81;5073933;28;20437;-77
2023/08/15 04:28:13;;;;;;;7.70;6.90;;;;;;;22.90;60.65;95018.56;5073264;28;20931;-76
2023/08/15 04:30:42;;;;;;;8.03;7.23;;;;;;;22.90;60.93;95022.06;5073872;28;20441;-76
2023/08/15 04:33:08;;;;;;;7.23;6.47;;;;;;;22.84;60.91;95033.56;5073733;28;20493;-74
2023/08/15 04:35:35;;;;;;;8.57;6.90;;;;;;;22.80;61.50;95035.78;5074165;28;20443;-76
2023/08/15 04:38:02;;;;;;;9.10;7.10;;;;;;;22.83;61.44;95038.09;5077517;28;20440;-77
2023/08/15 04:40:34;;;;;;;7.47;6.73;;;;;;;22.79;62.42;95049.38;5077203;28;20442;-78
2023/08/15 04:43:01;;;;;;;12.93;7.47;;;;;;;22.79;62.37;95049.38;5077464;28;20438;-78
2023/08/15 04:45:28;;;;;;;7.80;7.00;;;;;;;22.79;62.35;95046.69;5076785;28;20446;-77
2023/08/15 04:47:56;;;;;;;8.60;6.93;;;;;;;22.80;61.74;95062.53;5076476;28;20485;-77
2023/08/15 04:50:23;;;;;;;7.37;6.77;;;;;;;22.79;61.73;95054.72;5076766;28;20956;-77
2023/08/15 04:52:50;;;;;;;9.87;8.20;;;;;;;22.79;61.73;95050.19;5058546;28;20495;-77
2023/08/15 04:55:17;;;;;;;9.27;7.40;;;;;;;22.80;61.64;95051.84;5076552;28;20475;-76
2023/08/15 04:57:44;;;;;;;7.73;7.00;;;;;;;22.83;62.46;95047.97;5078485;28;20431;-77
2023/08/15 05:00:15;;;;;;;9.70;7.40;;;;;;;22.79;62.03;95057.41;5076302;28;20489;-76
2023/08/15 05:02:42;;;;;;;8.10;7.30;;;;;;;22.77;62.17;95057.59;5076827;28;20788;-77
2023/08/15 05:05:11;;;;;;;9.40;6.90;;;;;;;22.82;62.30;95052.50;5075918;28;20455;-77
2023/08/15 05:07:38;;;;;;;8.70;7.03;;;;;;;22.86;62.72;95074.34;5057632;28;20507;-76
2023/08/15 05:10:06;;;;;;;9.00;6.77;;;;;;;22.88;62.76;95064.28;5075732;28;20444;-76
2023/08/15 05:12:33;;;;;;;11.33;7.10;;;;;;;22.91;63.51;95069.22;5075830;28;20450;-76
2023/08/15 05:15:00;;;;;;;9.10;7.70;;;;;;;22.95;63.96;95069.63;5075625;28;20448;-77
2023/08/15 05:17:27;;;;;;;9.07;7.70;;;;;;;22.96;64.05;95068.59;5075865;28;20926;-75
2023/08/15 05:19:53;;;;;;;7.60;6.90;;;;;;;22.99;62.49;95073.56;5076061;28;20445;-76
2023/08/15 05:22:22;;;;;;;7.50;6.50;;;;;;;23.02;61.48;95079.31;5075815;28;20471;-77
2023/08/15 05:24:48;;;;;;;10.57;6.93;;;;;;;23.06;60.93;95077.06;5075900;28;20445;-75
2023/08/15 05:27:15;;;;;;;7.90;7.10;;;;;;;23.10;60.95;95079.13;5075470;28;20493;-78
2023/08/15 05:29:43;;;;;;;7.73;6.87;;;;;;;23.15;60.20;95082.06;5075807;28;20799;-77
2023/08/15 05:32:10;;;;;;;10.03;7.53;;;;;;;23.16;60.86;95080.19;5057297;28;20488;-77
2023/08/15 05:34:37;;;;;;;11.47;7.70;;;;;;;23.17;60.99;95079.16;5075287;28;20443;-76
2023/08/15 05:37:04;;;;;;;8.10;6.50;;;;;;;23.19;62.26;95074.44;5056674;28;20449;-76
2023/08/15 05:39:32;;;;;;;7.93;6.40;;;;;;;23.16;61.97;95080.19;5075034;28;20443;-78
2023/08/15 05:41:59;;;;;;;12.60;7.07;;;;;;;23.16;61.92;95083.69;5075032;28;20446;-77
2023/08/15 05:44:26;;;;;;;8.97;6.53;;;;;;;23.14;61.49;95085.75;5075145;28;20445;-76
2023/08/15 05:46:53;;;;;;;10.93;6.30;;;;;;;23.14;60.59;95074.22;5039392;28;20445;-77
2023/08/15 05:49:20;;;;;;;11.57;6.10;;;;;;;23.08;60.63;95077.69;5074992;28;20439;-77
2023/08/15 05:51:46;;;;;;;10.43;7.70;;;;;;;22.86;60.45;95080.53;5075163;28;20450;-77
2023/08/15 05:54:13;;;;;;;13.93;7.17;;;;;;;22.97;60.58;95080.97;5074990;28;20450;-77
2023/08/15 05:56:40;;;;;;;10.20;7.00;;;;;;;23.06;60.63;95072.53;5074734;28;20451;-77
2023/08/15 05:59:07;;;;;;;9.27;6.70;;;;;;;23.14;61.52;95079.56;5075088;28;20806;-75
2023/08/15 06:01:34;;;;;;;10.63;6.67;;;;;;;23.17;61.97;95077.31;5074996;28;20454;-77
2023/08/15 06:04:01;;;;;;;8.67;6.40;;;;;;;23.22;62.02;95081.22;5075454;28;20450;-76
2023/08/15 06:06:28;;;;;;;15.27;7.73;;;;;;;23.21;61.13;95080.41;5075388;28;20939;-77
2023/08/15 06:08:55;;;;;;;12.03;6.27;;;;;;;23.07;60.34;95074.19;5040093;28;20489;-77
2023/08/15 06:11:22;;;;;;;20.20;7.40;;;;;;;23.12;60.86;95081.59;5075251;28;20485;-77
2023/08/15 06:13:50;;;;;;;18.37;7.77;;;;;;;23.17;61.39;95085.34;5075152;28;20451;-77
2023/08/15 06:16:17;;;;;;;15.10;6.83;;;;;;;23.07;60.45;95086.75;5075595;28;20466;-77
2023/08/15 06:18:43;;;;;;;7.87;7.13;;;;;;;23.14;60.79;95085.75;5074752;28;20435;-77
2023/08/15 06:21:10;;;;;;;7.60;6.83;;;;;;;23.18;61.56;95081.63;5074923;28;20499;-75
2023/08/15 06:23:37;;;;;;;12.63;7.00;;;;;;;23.23;61.26;95077.53;5056105;28;20454;-76
2023/08/15 06:26:04;;;;;;;9.03;6.10;;;;;;;23.31;61.12;95091.53;5074343;28;20437;-76
2023/08/15 06:28:31;;;;;;;7.73;6.13;;;;;;;23.21;61.79;95090.28;5056455;28;20891;-74
2023/08/15 06:31:02;;;;;;;13.47;6.77;;;;;;;22.84;65.11;95090.63;5075717;28;20934;-75
2023/08/15 06:33:29;;;;;;;8.03;6.90;;;;;;;22.74;66.12;95090.09;5024154;28;20445;-76
2023/08/15 06:35:56;;;;;;;7.53;6.80;;;;;;;22.85;66.29;95086.09;5074710;28;20946;-76
2023/08/15 06:38:22;;;;;;;7.20;6.10;;;;;;;22.86;66.39;95082.38;5074375;28;20449;-78
2023/08/15 06:40:49;;;;;;;10.00;6.43;;;;;;;22.96;66.53;95095.38;5074508;28;20429;-76
2023/08/15 06:43:16;;;;;;;9.00;6.10;;;;;;;23.01;66.93;95107.13;5074201;28;20454;-77
2023/08/15 06:45:43;;;;;;;9.90;7.67;;;;;;;22.74;68.67;95103.50;5074933;28;20446;-77
2023/08/15 06:48:11;;;;;;;7.27;6.53;;;;;;;22.71;69.04;95097.72;5039393;28;20513;-77
2023/08/15 06:50:38;;;;;;;6.90;6.03;;;;;;;22.66;69.38;95101.00;5074236;28;20811;-77
2023/08/15 06:53:05;;;;;;;8.40;6.70;;;;;;;22.64;69.62;95105.72;5074039;28;20448;-77
2023/08/15 06:55:32;;;;;;;8.87;6.67;;;;;;;22.45;69.14;95098.41;5073757;28;20436;-77
2023/08/15 06:57:58;;;;;;;11.10;7.33;;;;;;;22.59;70.40;95102.81;5074082;28;20970;-76
2023/08/15 07:00:28;;;;;;;8.50;7.20;;;;;;;22.65;70.05;95101.19;5073446;28;20440;-77
2023/08/15 07:02:55;;;;;;;7.07;6.40;;;;;;;22.72;69.34;95094.84;5073970;28;20448;-77
2023/08/15 07:05:23;;;;;;;7.20;6.20;;;;;;;22.74;69.24;95100.81;5074636;28;20443;-76
2023/08/15 07:07:50;;;;;;;10.10;6.50;;;;;;;22.77;69.05;95110.28;5074613;28;20484;-77
2023/08/15 07:10:17;;;;;;;8.10;7.30;;;;;;;22.78;69.31;95109.25;5074590;28;21011;-77
2023/08/15 07:12:44;;;;;;;7.20;6.60;;;;;;;22.84;68.60;95111.16;5074594;28;20463;-76
2023/08/15 07:15:12;;;;;;;7.17;6.57;;;;;;;22.86;68.55;95104.63;5073668;28;20438;-76
2023/08/15 07:17:39;;;;;;;8.13;7.43;;;;;;;22.77;69.42;95100.41;5073921;28;20945;-76
2023/08/15 07:20:07;;;;;;;7.20;6.60;;;;;;;22.75;69.42;95101.63;5074207;28;20438;-77
2023/08/15 07:22:35;;;;;;;9.43;7.13;;;;;;;22.82;69.06;95108.69;5074116;28;20462;-77
2023/08/15 07:25:03;;;;;;;10.77;7.00;;;;;;;22.89;68.86;95113.25;5073299;28;20438;-78
2023/08/15 07:27:30;;;;;;;7.93;6.93;;;;;;;22.89;68.80;95108.75;5072649;28;20440;-76
2023/08/15 07:29:56;;;;;;;12.50;6.73;;;;;;;22.92;68.97;95102.16;5072853;28;20470;-76
2023/08/15 07:32:23;;;;;;;8.17;6.83;;;;;;;22.94;69.41;95105.44;5072685;28;20956;-77
2023/08/15 07:34:50;;;;;;;7.70;7.00;;;;;;;22.86;70.01;95109.97;5073302;28;20440;-76
2023/08/15 07:37:17;;;;;;;8.87;7.30;;;;;;;22.89;70.11;95106.06;5054118;28;20433;-78
2023/08/15 07:39:47;;;;;;;10.47;7.17;;;;;;;22.97;69.79;95110.41;5072468;28;20439;-77
2023/08/15 07:42:14;;;;;;;7.53;6.87;;;;;;;22.99;70.49;95113.69;5072563;28;20435;-77
2023/08/15 07:44:40;;;;;;;8.13;7.43;;;;;;;22.99;69.98;95113.69;5072569;28;20445;-77
2023/08/15 07:47:07;;;;;;;7.63;6.87;;;;;;;23.05;70.06;95107.53;5072336;28;20449;-78
2023/08/15 07:49:34;;;;;;;8.17;7.37;;;;;;;23.10;70.36;95111.25;5072636;28;21014;-77
2023/08/15 07:52:01;;;;;;;7.80;7.00;;;;;;;23.09;71.17;95114.13;5072472;28;20841;-77
2023/08/15 07:54:27;;;;;;;10.47;7.83;;;;;;;23.02;70.80;95116.81;5072754;28;20442;-77
2023/08/15 07:56:56;;;;;;;9.80;7.80;;;;;;;22.96;71.20;95111.44;5072930;28;20798;-77
2023/08/15 07:59:23;;;;;;;9.30;6.67;;;;;;;22.86;70.80;95109.97;5073027;28;20933;-77
2023/08/15 08:01:50;;;;;;;8.60;7.73;;;;;;;22.77;72.10;95104.94;5073007;28;20492;-77
2023/08/15 08:04:19;;;;;;;9.32;8.38;;;;;;;22.81;72.07;95112.41;5071176;28;20468;-76
2023/08/15 08:06:45;;;;;;;11.27;7.87;;;;;;;22.77;72.06;95099.59;5072690;28;20455;-77
2023/08/15 08:09:12;;;;;;;10.43;7.87;;;;;;;22.74;72.51;95111.50;5053714;28;20997;-77
2023/08/15 08:11:40;;;;;;;13.07;8.60;;;;;;;22.78;72.96;95107.41;5075436;28;20448;-77
2023/08/15 08:14:08;;;;;;;10.70;7.77;;;;;;;22.60;73.77;95104.47;5076561;28;20443;-77
2023/08/15 08:16:35;;;;;;;9.30;7.93;;;;;;;22.74;74.26;95102.66;5076017;28;20956;-77
2023/08/15 08:19:02;;;;;;;10.17;8.50;;;;;;;22.74;74.12;95102.66;5076375;28;20456;-78
2023/08/15 08:21:29;;;;;;;9.87;8.83;;;;;;;22.72;74.40;95108.22;5074060;28;20469;-76
2023/08/15 08:23:55;;;;;;;9.50;8.07;;;;;;;22.72;74.67;95110.06;5075991;28;20830;-75
2023/08/15 08:26:22;;;;;;;9.43;8.20;;;;;;;22.85;74.88;95110.16;5057763;28;20453;-75
2023/08/15 08:28:50;;;;;;;9.33;7.33;;;;;;;22.83;73.93;95099.63;5075853;28;20486;-76
2023/08/15 08:31:18;;;;;;;9.90;8.90;;;;;;;22.93;72.42;95104.63;5075710;28;20441;-73
2023/08/15 08:33:45;;;;;;;9.93;7.70;;;;;;;22.97;72.48;95100.53;5073842;28;20438;-75
2023/08/15 08:36:11;;;;;;;8.60;7.68;;;;;;;23.13;72.02;95108.19;5074839;28;20821;-75
2023/08/15 08:38:38;;;;;;;9.10;7.67;;;;;;;23.31;70.50;95102.25;5075965;28;20205;-75
2023/08/15 08:41:05;;;;;;;12.30;9.50;;;;;;;23.50;70.37;95111.34;5075515;28;20447;-75
2023/08/15 08:43:33;;;;;;;11.93;7.57;;;;;;;23.46;70.76;95100.22;5075807;28;20508;-74
2023/08/15 08:46:01;;;;;;;11.07;9.27;;;;;;;23.50;70.94;95108.69;5073426;28;20800;-76
2023/08/15 08:48:31;;;;;;;9.73;8.50;;;;;;;23.55;70.54;95102.69;5075724;28;20532;-74
2023/08/15 08:50:58;;;;;;;7.57;6.63;;;;;;;23.58;70.61;95105.81;5075311;28;20880;-75
2023/08/15 08:53:25;;;;;;;8.57;7.50;;;;;;;23.71;70.05;95097.81;5075536;28;20454;-75
2023/08/15 08:55:53;;;;;;;11.73;7.13;;;;;;;23.84;69.86;95102.31;5075351;28;20444;-76
2023/08/15 08:58:23;;;;;;;8.67;7.77;;;;;;;23.96;69.21;95094.47;5056869;28;20454;-74
2023/08/15 09:00:50;;;;;;;12.53;8.13;;;;;;;24.06;68.81;95093.03;5075509;28;20450;-74
2023/08/15 09:03:17;;;;;;;16.40;8.60;;;;;;;24.12;68.75;95096.75;5075494;28;20462;-74
2023/08/15 09:05:45;;;;;;;17.20;12.90;;;;;;;24.07;68.82;95092.00;5075270;28;20442;-75
2023/08/15 09:08:12;;;;;;;32.03;24.40;;;;;;;23.94;69.16;95105.41;5056412;28;20495;-76
2023/08/15 09:10:39;;;;;;;23.60;18.07;;;;;;;23.82;70.26;95099.03;5040358;28;20517;-75
2023/08/15 09:13:06;;;;;;;15.93;10.33;;;;;;;23.71;70.77;95091.63;5075096;28;20949;-75
2023/08/15 09:15:33;;;;;;;12.30;9.77;;;;;;;23.77;69.76;95096.97;5075334;28;20456;-74
2023/08/15 09:18:01;;;;;;;18.83;9.37;;;;;;;23.87;69.38;95093.03;5056317;28;20435;-75
2023/08/15 09:20:28;;;;;;;17.27;8.87;;;;;;;24.00;69.79;95098.41;5074955;28;20471;-75
2023/08/15 09:22:58;;;;;;;13.23;9.30;;;;;;;24.06;69.57;95090.34;5073782;28;20865;-75
2023/08/15 09:25:27;;;;;;;13.23;8.20;;;;;;;24.09;70.17;95092.63;5074857;28;20448;-76
2023/08/15 09:27:54;;;;;;;8.30;7.57;;;;;;;24.09;69.74;95092.63;5074929;28;20448;-76
2023/08/15 09:30:22;;;;;;;9.30;8.40;;;;;;;23.99;70.00;95084.16;5075032;28;20444;-74
2023/08/15 09:32:49;;;;;;;12.20;8.37;;;;;;;24.00;69.33;95091.19;5074934;28;20444;-75
2023/08/15 09:35:19;;;;;;;9.37;8.30;;;;;;;23.99;70.60;95092.19;5074655;28;20448;-74
2023/08/15 09:37:47;;;;;;;11.33;9.17;;;;;;;23.92;71.65;95094.06;5039210;28;20834;-75
2023/08/15 09:40:22;;;;;;;13.70;8.80;;;;;;;23.88;70.59;95084.78;5074652;28;20451;-75
2023/08/15 09:42:49;;;;;;;9.70;8.70;;;;;;;23.96;70.93;95075.72;5074577;28;20496;-76
2023/08/15 09:45:17;;;;;;;10.07;8.10;;;;;;;24.07;70.85;95078.59;5074282;28;20461;-74
2023/08/15 09:47:45;;;;;;;13.27;9.10;;;;;;;24.14;71.54;95069.72;5074163;28;20443;-75
2023/08/15 09:50:13;;;;;;;16.83;10.20;;;;;;;24.01;71.62;95082.13;5074353;28;20482;-75
2023/08/15 09:52:41;;;;;;;11.27;9.13;;;;;;;23.87;72.32;95075.09;5038815;28;20481;-75
2023/08/15 09:55:10;;;;;;;13.80;8.33;;;;;;;23.83;72.50;95073.88;5074213;28;20451;-74
2023/08/15 09:57:39;;;;;;;12.77;10.20;;;;;;;23.55;73.61;95068.69;5074042;28;20450;-76
2023/08/15 10:00:09;;;;;;;9.80;8.90;;;;;;;23.45;74.29;95071.78;5073665;28;20444;-75
2023/08/15 10:02:43;;;;;;;12.40;8.83;;;;;;;23.47;74.11;95071.59;5073701;28;20530;-76
2023/08/15 10:05:12;;;;;;;11.17;9.33;;;;;;;23.54;74.15;95079.63;5073996;28;20493;-76
2023/08/15 10:07:41;;;;;;;9.77;8.77;;;;;;;23.42;74.13;95072.19;5073853;28;20492;-74
2023/08/15 10:10:09;;;;;;;12.57;8.70;;;;;;;23.35;73.40;95082.06;5073779;28;20484;-75
2023/08/15 10:12:42;;;;;;;12.90;7.90;;;;;;;23.24;74.75;95071.13;5073950;28;20800;-76
2023/08/15 10:15:10;;;;;;;12.60;9.33;;;;;;;23.15;74.77;95060.63;5073775;28;20447;-76
2023/08/15 10:17:39;;;;;;;16.43;8.83;;;;;;;23.35;75.25;95071.34;5073815;28;20952;-76
2023/08/15 10:20:10;;;;;;;9.33;8.33;;;;;;;23.41;75.36;95075.88;5074071;28;20886;-76
2023/08/15 10:22:38;;;;;;;15.87;8.70;;;;;;;23.57;73.56;95069.34;5074068;28;20447;-76
2023/08/15 10:25:33;;;;;;;11.07;8.00;;;;;;;23.78;72.29;95087.06;5073858;28;20465;-75
2023/08/15 10:28:05;;;;;;;12.10;8.80;;;;;;;23.87;72.05;95077.78;5074465;28;20449;-75
2023/08/15 10:30:33;;;;;;;14.63;9.10;;;;;;;23.87;71.63;95071.59;5073531;28;20490;-75
2023/08/15 10:33:01;;;;;;;16.70;10.13;;;;;;;23.95;71.94;95077.56;5073409;28;20497;-76
2023/08/15 10:35:33;;;;;;;13.00;8.60;;;;;;;23.97;72.33;95074.69;5038294;28;20444;-76
2023/08/15 10:37:59;;;;;;;10.27;8.70;;;;;;;23.99;72.46;95078.78;5073095;28;21016;-76
2023/08/15 10:40:39;;;;;;;13.97;8.70;;;;;;;24.10;72.72;95080.03;5073471;28;20451;-76
2023/08/15 10:43:11;;;;;;;12.77;8.77;;;;;;;24.04;71.72;95076.34;5073466;28;20946;-76
2023/08/15 10:45:41;;;;;;;10.33;8.10;;;;;;;24.08;71.83;95069.53;5073438;28;20451;-75
2023/08/15 10:48:09;;;;;;;14.00;8.10;;;;;;;24.13;70.55;95079.63;5073533;28;20451;-76
2023/08/15 10:50:37;;;;;;;13.87;7.93;;;;;;;24.17;69.76;95070.13;5073562;28;20523;-75
2023/08/15 10:53:06;;;;;;;12.43;7.70;;;;;;;24.20;68.14;95063.50;5073429;28;20447;-76
2023/08/15 10:55:35;;;;;;;8.70;7.90;;;;;;;24.35;69.07;95074.88;5073535;28;20444;-76
2023/08/15 10:58:05;;;;;;;10.03;8.67;;;;;;;24.43;68.30;95079.16;5073437;28;20860;-76
2023/08/15 11:00:34;;;;;;;11.50;8.23;;;;;;;24.40;69.46;95075.88;5073326;28;20445;-76
2023/08/15 11:03:02;;;;;;;9.43;8.53;;;;;;;24.23;68.29;95071.13;5054613;28;20518;-76
2023/08/15 11:05:29;;;;;;;9.27;8.33;;;;;;;24.32;68.51;95089.53;5073256;28;20440;-75
2023/08/15 11:08:10;;;;;;;9.23;8.40;;;;;;;24.17;68.49;95093.41;5073350;28;20451;-76
2023/08/15 11:10:37;;;;;;;9.27;7.97;;;;;;;24.28;68.84;95093.63;5073326;28;20487;-76
2023/08/15 11:13:04;;;;;;;11.40;8.50;;;;;;;24.35;68.89;95085.59;5073510;28;20804;-75
2023/08/15 11:15:33;;;;;;;9.90;7.60;;;;;;;24.38;67.26;95082.47;5073054;28;20855;-76
2023/08/15 11:18:00;;;;;;;9.87;7.53;;;;;;;24.31;67.62;95082.50;5072934;28;20455;-76
2023/08/15 11:20:29;;;;;;;14.03;7.77;;;;;;;24.03;67.57;95080.06;5073353;28;20477;-76
2023/08/15 11:22:56;;;;;;;10.03;8.30;;;;;;;23.97;67.76;95074.69;5073166;28;20497;-75
2023/08/15 11:25:23;;;;;;;16.70;8.60;;;;;;;24.04;68.08;95079.03;5073210;28;20437;-75
2023/08/15 11:27:50;;;;;;;8.60;7.70;;;;;;;24.09;68.48;95076.53;5072626;28;20444;-76
2023/08/15 11:30:17;;;;;;;9.53;8.10;;;;;;;23.97;67.76;95075.50;5054190;28;20946;-74
2023/08/15 11:32:46;;;;;;;13.40;8.40;;;;;;;23.99;67.75;95076.09;5072930;28;20446;-75
2023/08/15 11:35:14;;;;;;;14.40;8.53;;;;;;;24.12;68.99;95074.47;5072904;28;20452;-75